Time;durP1;ratioP1;P1;durP2;ratioP2;P2;SDS_P1;SDS_P2;PMS_P1;PMS_P2;Temp;Humidity;BMP_temperature;BMP_pressure;BME280_temperature;BME280_humidity;BME280_pressure;Samples;Min_cycle;Max_cycle;Signal;HPM_P1;HPM_P2
2023/05/27 00:09:44;;;;;;;4.90;2.90;;;;;;;9.50;57.13;100357.99;437132;1253;140485;-60
2023/05/27 00:19:53;;;;;;;6.80;2.70;;;;;;;9.32;56.80;100361.27;436852;1248;138905;-59
2023/05/27 00:30:00;;;;;;;6.30;2.00;;;;;;;9.16;56.75;100358.84;437332;1250;139407;-59
2023/05/27 00:40:09;;;;;;;5.60;2.70;;;;;;;8.97;56.71;100356.20;436899;1251;139994;-59
2023/05/27 00:50:17;;;;;;;7.70;2.20;;;;;;;8.79;57.23;100358.62;437154;1253;139611;-60
2023/05/27 01:00:23;;;;;;;8.00;3.00;;;;;;;8.61;57.51;100361.64;437464;1251;139907;-60
2023/05/27 01:10:37;;;;;;;5.00;2.30;;;;;;;8.43;58.05;100371.27;437199;1251;139705;-59
2023/05/27 01:20:44;;;;;;;7.70;2.80;;;;;;;8.27;58.90;100379.06;437326;1248;139753;-60
2023/05/27 01:30:53;;;;;;;7.70;2.70;;;;;;;8.15;59.49;100385.69;437934;1251;141054;-61
2023/05/27 01:41:00;;;;;;;4.60;1.90;;;;;;;8.05;60.20;100386.80;437159;1248;139713;-59
2023/05/27 01:51:06;;;;;;;7.90;2.10;;;;;;;7.91;60.65;100380.21;437502;1250;139152;-59
2023/05/27 02:01:12;;;;;;;10.60;2.00;;;;;;;7.78;61.27;100382.80;437266;1252;139161;-59
2023/05/27 02:11:18;;;;;;;3.80;2.00;;;;;;;7.64;61.39;100385.97;437422;1248;139627;-59
2023/05/27 02:21:23;;;;;;;8.60;2.90;;;;;;;7.52;61.85;100392.86;437624;1253;139174;-60
2023/05/27 02:31:29;;;;;;;4.60;2.40;;;;;;;7.40;62.28;100397.69;437478;1250;139533;-60
2023/05/27 02:41:35;;;;;;;6.70;2.70;;;;;;;7.32;62.60;100400.41;437322;1249;141307;-60
2023/05/27 02:51:41;;;;;;;9.80;2.90;;;;;;;7.31;63.27;100405.67;436792;1248;139939;-60
2023/05/27 03:01:47;;;;;;;8.20;3.00;;;;;;;7.45;63.76;100409.52;437318;1248;139935;-61
2023/05/27 03:11:53;;;;;;;8.80;2.70;;;;;;;8.29;63.56;100426.09;437387;1253;140638;-60
2023/05/27 03:22:00;;;;;;;9.70;2.40;;;;;;;9.92;61.69;100425.73;437122;1248;139703;-60
2023/05/27 03:32:07;;;;;;;6.50;2.60;;;;;;;9.86;60.19;100426.94;437214;1253;139384;-60
2023/05/27 03:42:13;;;;;;;6.80;1.90;;;;;;;9.54;60.44;100422.31;437782;1250;140234;-61
2023/05/27 03:52:19;;;;;;;7.20;1.80;;;;;;;9.70;60.16;100424.52;437021;1253;140033;-59
2023/05/27 04:02:25;;;;;;;6.10;3.10;;;;;;;10.14;59.83;100427.70;437363;1253;141715;-59
2023/05/27 04:12:31;;;;;;;5.30;2.10;;;;;;;14.43;57.29;100430.14;437102;1251;139695;-59
2023/05/27 04:22:37;;;;;;;9.40;2.50;;;;;;;19.42;49.95;100434.02;436470;1251;139138;-60
2023/05/27 04:32:43;;;;;;;6.20;1.80;;;;;;;22.26;43.73;100442.85;436834;1253;140178;-60
2023/05/27 04:42:49;;;;;;;4.90;2.40;;;;;;;24.41;39.82;100437.92;437269;1253;139391;-60
2023/05/27 04:52:55;;;;;;;7.20;2.40;;;;;;;26.71;36.32;100450.05;436878;1251;140223;-61
2023/05/27 05:03:01;;;;;;;3.50;1.80;;;;;;;28.88;33.30;100451.98;436841;1252;139521;-60
2023/05/27 05:13:07;;;;;;;6.20;1.90;;;;;;;31.01;30.48;100450.39;437379;1248;139030;-61
2023/05/27 05:23:13;;;;;;;4.50;1.80;;;;;;;31.99;28.11;100451.69;437117;1251;140676;-60
2023/05/27 05:33:19;;;;;;;5.30;2.80;;;;;;;33.40;26.73;100441.91;436917;1250;140276;-60
2023/05/27 05:43:28;;;;;;;4.40;2.40;;;;;;;35.29;25.22;100447.77;436702;1251;139425;-61
2023/05/27 05:53:34;;;;;;;3.10;2.10;;;;;;;37.28;23.43;100451.45;436626;1253;138634;-61
2023/05/27 06:03:40;;;;;;;4.00;1.90;;;;;;;37.61;22.21;100460.05;436754;1253;139203;-61
2023/05/27 06:13:46;;;;;;;2.50;1.60;;;;;;;38.50;21.30;100471.23;437116;1251;138596;-61
2023/05/27 06:23:52;;;;;;;4.90;1.50;;;;;;;39.87;20.45;100477.45;436672;1252;138985;-60
2023/05/27 06:33:58;;;;;;;3.50;2.30;;;;;;;40.44;19.26;100474.80;436539;1250;139515;-61
2023/05/27 06:44:04;;;;;;;3.30;1.60;;;;;;;40.72;18.92;100466.67;436804;1253;138713;-61
2023/05/27 06:54:10;;;;;;;4.40;1.80;;;;;;;42.32;17.93;100465.27;437640;1251;140253;-60
2023/05/27 07:04:16;;;;;;;16.20;2.90;;;;;;;42.47;17.05;100462.64;436542;1253;138815;-61
2023/05/27 07:14:22;;;;;;;4.30;1.90;;;;;;;42.90;16.52;100464.85;437061;1251;138804;-60
2023/05/27 07:24:28;;;;;;;2.20;1.50;;;;;;;43.57;15.79;100470.91;436415;1251;371135;-60
2023/05/27 07:34:34;;;;;;;3.10;1.50;;;;;;;42.94;15.52;100466.69;436792;1253;139584;-61
2023/05/27 07:44:40;;;;;;;2.20;1.50;;;;;;;42.64;15.15;100462.33;436603;1253;139005;-61
2023/05/27 07:54:45;;;;;;;6.30;2.30;;;;;;;40.87;15.40;100455.66;436569;1253;138609;-60
2023/05/27 08:04:58;;;;;;;;;;;;;;;33.61;18.06;100455.73;436794;1253;141467;-60
2023/05/27 08:15:04;;;;;;;3.60;1.80;;;;;;;28.27;21.23;100452.41;436907;1253;125228;-60
2023/05/27 08:25:10;;;;;;;7.10;2.20;;;;;;;24.55;24.47;100458.52;436775;1251;139199;-59
2023/05/27 08:35:18;;;;;;;2.60;1.60;;;;;;;23.07;26.50;100465.32;436357;1252;139604;-63
2023/05/27 08:45:24;;;;;;;7.70;1.60;;;;;;;22.27;27.81;100465.34;437095;1253;139174;-61
2023/05/27 08:55:31;;;;;;;4.10;1.80;;;;;;;21.64;29.20;100459.34;436761;1253;141062;-59
2023/05/27 09:05:37;;;;;;;4.30;1.70;;;;;;;21.63;29.67;100458.37;436379;1253;138875;-60
2023/05/27 09:15:43;;;;;;;3.30;1.30;;;;;;;21.50;29.86;100456.40;436954;1253;139985;-60
2023/05/27 09:25:49;;;;;;;3.70;1.30;;;;;;;21.50;30.50;100446.92;436699;1253;141359;-59
2023/05/27 09:35:55;;;;;;;4.00;2.30;;;;;;;20.95;30.94;100447.90;436617;1253;140052;-62
2023/05/27 09:46:02;;;;;;;4.10;1.80;;;;;;;20.20;31.67;100452.37;436836;1253;139185;-60
2023/05/27 09:56:09;;;;;;;3.10;1.20;;;;;;;19.81;31.53;100441.83;437762;1251;73118;-63
2023/05/27 10:06:17;;;;;;;3.40;1.70;;;;;;;19.61;31.78;100439.98;437683;1253;61618;-62
2023/05/27 10:16:24;;;;;;;6.20;1.50;;;;;;;19.30;32.18;100438.41;437508;1251;139354;-60
2023/05/27 10:26:37;;;;;;;3.20;1.50;;;;;;;18.92;32.30;100432.34;436297;1253;140577;-60
2023/05/27 10:36:44;;;;;;;2.40;1.10;;;;;;;18.53;32.69;100420.13;436608;1254;139635;-63
2023/05/27 10:46:50;;;;;;;7.50;1.30;;;;;;;18.45;32.77;100421.54;436437;1253;139291;-62
2023/05/27 10:56:57;;;;;;;4.60;1.50;;;;;;;18.08;32.78;100416.06;436353;1253;139823;-62
2023/05/27 11:07:03;;;;;;;4.10;1.60;;;;;;;17.91;32.71;100418.67;436472;1251;139824;-61
2023/05/27 11:17:12;;;;;;;3.30;1.00;;;;;;;17.86;33.23;100414.59;436715;1254;140483;-62
2023/05/27 11:27:18;;;;;;;3.50;1.40;;;;;;;17.84;32.45;100410.91;436459;1251;138829;-63
2023/05/27 11:37:24;;;;;;;4.80;1.40;;;;;;;17.70;33.10;100404.91;436330;1251;138756;-63
2023/05/27 11:47:29;;;;;;;2.00;1.10;;;;;;;17.58;33.18;100400.76;435935;1256;139526;-62
2023/05/27 11:57:35;;;;;;;2.70;1.70;;;;;;;17.49;33.51;100387.48;436220;1251;139307;-63
2023/05/27 12:07:41;;;;;;;1.90;0.80;;;;;;;17.51;32.94;100381.86;436416;1253;139650;-63
2023/05/27 12:17:47;;;;;;;4.60;1.40;;;;;;;17.52;32.46;100380.73;436608;1251;139425;-61
2023/05/27 12:27:52;;;;;;;1.40;0.80;;;;;;;17.39;32.03;100374.33;436863;1251;138803;-63
2023/05/27 12:37:58;;;;;;;4.40;0.90;;;;;;;17.31;31.68;100381.00;436973;1251;139471;-63
2023/05/27 12:48:05;;;;;;;1.90;1.30;;;;;;;17.31;31.85;100366.78;436713;1251;138625;-63
2023/05/27 12:58:11;;;;;;;4.10;1.90;;;;;;;17.38;32.07;100356.17;436891;1254;139132;-62
2023/05/27 13:08:16;;;;;;;2.30;0.80;;;;;;;17.49;31.63;100347.82;437297;1251;140216;-61
2023/05/27 13:18:22;;;;;;;2.90;1.80;;;;;;;17.51;31.66;100343.65;436879;1254;139693;-62
2023/05/27 13:28:28;;;;;;;1.60;1.20;;;;;;;17.41;31.12;100338.21;437159;1251;140154;-62
2023/05/27 13:38:34;;;;;;;4.80;2.40;;;;;;;17.29;31.14;100332.83;437065;1251;139665;-62
2023/05/27 13:48:40;;;;;;;2.90;1.20;;;;;;;17.29;30.58;100331.80;436876;1251;138655;-62
2023/05/27 13:58:45;;;;;;;2.30;1.00;;;;;;;17.25;29.78;100324.83;436529;1251;140495;-62
2023/05/27 14:08:52;;;;;;;1.60;0.90;;;;;;;17.24;28.87;100318.90;436888;1251;140187;-62
2023/05/27 14:18:58;;;;;;;2.50;1.00;;;;;;;17.27;28.91;100311.62;436387;1251;139572;-61
2023/05/27 14:29:04;;;;;;;1.40;1.00;;;;;;;17.26;28.68;100304.56;436702;1249;139247;-62
2023/05/27 14:39:10;;;;;;;1.30;1.10;;;;;;;17.32;28.74;100295.77;436764;1253;140470;-62
2023/05/27 14:49:15;;;;;;;5.40;1.40;;;;;;;17.34;27.74;100289.11;436981;1250;139681;-62
2023/05/27 14:59:22;;;;;;;1.60;0.80;;;;;;;17.24;27.82;100286.66;436377;1254;140645;-63
2023/05/27 15:09:27;;;;;;;1.90;1.20;;;;;;;17.25;27.87;100272.83;438442;1253;138592;-63
2023/05/27 15:19:33;;;;;;;2.80;1.10;;;;;;;17.35;27.65;100260.13;436770;1251;140390;-63
2023/05/27 15:29:39;;;;;;;2.40;1.70;;;;;;;17.31;27.75;100261.14;436628;1250;138487;-64
2023/05/27 15:39:45;;;;;;;2.10;1.40;;;;;;;17.27;27.59;100245.39;436461;1251;139386;-64
2023/05/27 15:49:51;;;;;;;2.40;1.00;;;;;;;17.27;27.54;100237.11;436708;1251;139947;-64
2023/05/27 15:59:57;;;;;;;3.30;2.10;;;;;;;17.28;27.78;100240.02;436552;1253;141141;-65
2023/05/27 16:10:04;;;;;;;1.90;1.30;;;;;;;17.16;27.71;100241.85;437319;1251;140132;-64
2023/05/27 16:20:12;;;;;;;2.40;1.40;;;;;;;17.06;28.09;100234.32;437668;1250;139811;-65
2023/05/27 16:30:18;;;;;;;2.10;1.40;;;;;;;16.93;28.12;100230.73;437337;1251;139872;-64
2023/05/27 16:40:24;;;;;;;2.50;1.20;;;;;;;16.82;28.13;100221.08;436944;1251;138997;-65
2023/05/27 16:50:30;;;;;;;3.70;1.10;;;;;;;16.68;28.06;100220.73;436797;1251;139013;-63
2023/05/27 17:00:35;;;;;;;2.90;1.00;;;;;;;16.53;28.43;100211.70;436845;1253;138831;-64
2023/05/27 17:10:41;;;;;;;2.50;1.10;;;;;;;16.39;28.37;100211.69;436942;1253;139896;-64
2023/05/27 17:20:47;;;;;;;2.00;1.30;;;;;;;16.18;28.18;100209.56;436971;1252;138618;-64
2023/05/27 17:30:53;;;;;;;1.20;1.10;;;;;;;15.96;28.07;100204.58;436837;1251;140796;-64
2023/05/27 17:41:01;;;;;;;1.20;0.90;;;;;;;15.73;28.51;100202.41;436543;1251;139288;-65
2023/05/27 17:51:07;;;;;;;3.40;1.00;;;;;;;15.50;28.92;100204.09;439379;1251;139310;-64
2023/05/27 18:01:13;;;;;;;1.40;0.80;;;;;;;15.28;29.13;100203.42;437034;1250;138856;-64
2023/05/27 18:11:19;;;;;;;3.70;1.40;;;;;;;15.11;29.57;100204.02;436716;1251;139308;-65
2023/05/27 18:21:24;;;;;;;2.70;1.50;;;;;;;15.10;29.82;100198.36;436975;1251;138883;-63
2023/05/27 18:31:32;;;;;;;1.90;1.10;;;;;;;14.60;30.56;100203.52;437013;1253;138976;-64
2023/05/27 18:41:38;;;;;;;5.50;1.20;;;;;;;14.31;31.23;100209.95;436890;1251;138760;-64
2023/05/27 18:51:44;;;;;;;1.80;1.10;;;;;;;14.01;32.03;100215.17;436897;1253;138620;-65
2023/05/27 19:01:50;;;;;;;4.40;1.50;;;;;;;13.67;32.71;100225.36;436995;1253;139470;-64
2023/05/27 19:11:56;;;;;;;2.20;1.50;;;;;;;13.42;33.49;100224.88;436875;1253;140338;-64
2023/05/27 19:22:02;;;;;;;5.00;1.60;;;;;;;13.16;34.10;100228.13;436891;1251;139473;-65
2023/05/27 19:32:08;;;;;;;4.30;1.70;;;;;;;12.86;34.97;100238.28;436012;1251;139626;-65
2023/05/27 19:42:14;;;;;;;3.90;2.30;;;;;;;12.56;35.75;100241.71;436276;1251;140530;-65
2023/05/27 19:52:20;;;;;;;2.80;1.70;;;;;;;12.34;36.52;100243.73;436701;1251;138459;-60
2023/05/27 20:02:26;;;;;;;3.90;1.60;;;;;;;12.23;37.03;100249.83;452689;1250;138674;-59
2023/05/27 20:12:41;;;;;;;2.50;1.20;;;;;;;12.16;37.44;100248.73;451138;1250;139480;-59
2023/05/27 20:22:47;;;;;;;7.40;2.30;;;;;;;12.00;37.93;100255.06;439036;1250;142221;-60
2023/05/27 20:32:53;;;;;;;2.90;1.90;;;;;;;11.97;38.24;100259.44;436771;1251;139307;-59
2023/05/27 20:42:59;;;;;;;4.90;1.90;;;;;;;11.89;38.65;100260.95;436723;1251;139159;-60
2023/05/27 20:53:08;;;;;;;4.50;2.10;;;;;;;11.72;38.86;100253.68;436577;1251;141198;-60
2023/05/27 21:03:14;;;;;;;4.20;2.50;;;;;;;11.54;39.24;100257.16;436695;1250;139852;-60
2023/05/27 21:13:20;;;;;;;3.50;1.60;;;;;;;11.39;39.77;100250.45;437128;1251;138602;-60
2023/05/27 21:23:26;;;;;;;3.50;2.30;;;;;;;11.29;39.97;100245.40;437123;1251;140821;-60
2023/05/27 21:33:32;;;;;;;4.80;2.20;;;;;;;11.15;40.44;100239.55;437337;1253;140225;-60
2023/05/27 21:43:38;;;;;;;3.50;2.30;;;;;;;10.94;40.89;100239.80;437179;1251;140538;-57
2023/05/27 21:53:44;;;;;;;8.10;2.30;;;;;;;10.80;41.42;100247.55;436791;1253;138603;-61
2023/05/27 22:03:50;;;;;;;3.80;2.60;;;;;;;10.76;41.56;100239.75;436541;1251;140018;-61
2023/05/27 22:13:56;;;;;;;3.00;1.70;;;;;;;10.59;41.80;100235.39;436888;1251;139424;-61
2023/05/27 22:24:02;;;;;;;1.70;1.40;;;;;;;10.54;41.99;100237.23;436825;1251;139378;-60
2023/05/27 22:34:09;;;;;;;11.20;2.00;;;;;;;10.42;42.20;100239.05;436685;1251;139715;-60
2023/05/27 22:44:15;;;;;;;4.40;2.20;;;;;;;10.30;42.48;100233.73;436098;1254;140084;-60
2023/05/27 22:54:20;;;;;;;2.90;1.90;;;;;;;10.21;42.82;100229.12;436125;1251;141823;-60
2023/05/27 23:04:26;;;;;;;5.20;1.90;;;;;;;10.03;43.11;100228.14;436639;1253;139295;-61
2023/05/27 23:14:32;;;;;;;20.10;2.70;;;;;;;9.83;43.64;100225.28;436291;1253;140351;-60
2023/05/27 23:24:38;;;;;;;5.40;2.40;;;;;;;9.68;44.17;100215.72;436196;1251;139367;-60
2023/05/27 23:34:43;;;;;;;3.60;1.70;;;;;;;9.53;44.45;100204.57;436797;1251;139958;-61
2023/05/27 23:44:49;;;;;;;8.00;2.90;;;;;;;9.39;44.95;100203.34;436489;1250;139103;-58
2023/05/27 23:54:55;;;;;;;6.20;2.30;;;;;;;9.22;45.44;100201.36;436653;1253;139528;-59
